Time;durP1;ratioP1;P1;durP2;ratioP2;P2;SDS_P1;SDS_P2;PMS_P1;PMS_P2;Temp;Humidity;BMP_temperature;BMP_pressure;BME280_temperature;BME280_humidity;BME280_pressure;Samples;Min_cycle;Max_cycle;Signal;HPM_P1;HPM_P2
2023/06/24 00:02:16;;;;;;;9.60;8.55;;;17.10;99.90;;;;;;4934107;29;20047;-74
2023/06/24 00:04:42;;;;;;;11.35;8.93;;;16.90;99.90;;;;;;4917549;29;20090;-74
2023/06/24 00:07:08;;;;;;;9.80;8.40;;;16.90;99.90;;;;;;4945583;29;20035;-74
2023/06/24 00:09:33;;;;;;;11.15;8.95;;;16.80;99.90;;;;;;4914813;29;20103;-74
2023/06/24 00:11:59;;;;;;;11.90;9.52;;;16.80;99.90;;;;;;4934467;29;20107;-74
2023/06/24 00:14:26;;;;;;;10.07;9.05;;;16.80;99.90;;;;;;4947810;29;20120;-73
2023/06/24 00:16:56;;;;;;;11.70;9.07;;;16.80;99.90;;;;;;4931996;29;20547;-73
2023/06/24 00:19:26;;;;;;;12.68;9.45;;;16.70;99.90;;;;;;4947288;29;20051;-73
2023/06/24 00:21:53;;;;;;;10.38;9.05;;;16.70;99.90;;;;;;4949824;29;20058;-72
2023/06/24 00:24:25;;;;;;;12.40;8.65;;;16.70;99.90;;;;;;4947680;29;20092;-72
2023/06/24 00:26:55;;;;;;;10.20;9.18;;;16.60;99.90;;;;;;4945705;29;20039;-72
2023/06/24 00:29:21;;;;;;;10.75;9.30;;;16.60;99.90;;;;;;4951225;29;20055;-72
2023/06/24 00:31:47;;;;;;;14.10;9.77;;;16.60;99.90;;;;;;4916032;29;20043;-73
2023/06/24 00:34:13;;;;;;;13.00;9.77;;;16.60;99.90;;;;;;4928783;29;20623;-73
2023/06/24 00:36:39;;;;;;;13.43;9.77;;;16.50;99.90;;;;;;4931031;29;20066;-73
2023/06/24 00:39:05;;;;;;;11.75;10.38;;;16.50;99.90;;;;;;4919111;29;20048;-73
2023/06/24 00:41:32;;;;;;;11.95;10.63;;;16.50;99.90;;;;;;4913172;29;20044;-73
2023/06/24 00:43:58;;;;;;;11.52;9.88;;;16.40;99.90;;;;;;4916353;29;20058;-72
2023/06/24 00:46:25;;;;;;;13.43;10.50;;;16.40;99.90;;;;;;4948610;28;20055;-72
2023/06/24 00:48:57;;;;;;;14.25;10.55;;;16.40;99.90;;;;;;4928389;29;20044;-72
2023/06/24 00:51:29;;;;;;;14.30;10.10;;;16.40;99.90;;;;;;4932700;29;20047;-72
2023/06/24 00:53:55;;;;;;;12.13;10.23;;;16.40;99.90;;;;;;4929312;29;20140;-72
2023/06/24 00:56:23;;;;;;;10.55;9.45;;;16.30;99.90;;;;;;4934901;29;20083;-72
2023/06/24 00:58:50;;;;;;;12.65;10.27;;;16.30;99.90;;;;;;4932694;29;20137;-72
2023/06/24 01:01:16;;;;;;;14.32;10.93;;;16.30;99.90;;;;;;4948016;29;20091;-72
2023/06/24 01:03:42;;;;;;;13.10;10.98;;;16.20;99.90;;;;;;4947078;29;20142;-71
2023/06/24 01:06:09;;;;;;;14.00;10.43;;;16.20;99.90;;;;;;4927117;29;20102;-72
2023/06/24 01:08:35;;;;;;;13.13;10.20;;;16.30;99.90;;;;;;4932257;29;20106;-72
2023/06/24 01:11:01;;;;;;;13.32;10.57;;;16.20;99.90;;;;;;4931834;29;20043;-72
2023/06/24 01:13:27;;;;;;;12.45;10.52;;;16.20;99.90;;;;;;4933277;29;20138;-72
2023/06/24 01:15:54;;;;;;;12.82;10.02;;;16.20;99.90;;;;;;4917211;29;20495;-72
2023/06/24 01:18:55;;;;;;;14.80;10.55;;;16.10;99.90;;;;;;4933461;29;20044;-72
2023/06/24 01:21:28;;;;;;;14.30;11.70;;;16.10;99.90;;;;;;4951884;29;20043;-71
2023/06/24 01:24:21;;;;;;;13.40;10.82;;;16.00;99.90;;;;;;4931727;29;20065;-72
2023/06/24 01:27:02;;;;;;;12.63;10.48;;;16.00;99.90;;;;;;4935265;29;20360;-72
2023/06/24 01:30:05;;;;;;;15.07;11.00;;;16.10;99.90;;;;;;4952433;29;20067;-72
2023/06/24 01:32:36;;;;;;;12.70;10.63;;;16.00;99.90;;;;;;4935531;29;20051;-72
2023/06/24 01:35:11;;;;;;;13.18;10.75;;;15.90;99.90;;;;;;4935857;29;20058;-72
2023/06/24 01:37:43;;;;;;;11.18;9.95;;;15.90;99.90;;;;;;4934228;29;20075;-72
2023/06/24 01:40:15;;;;;;;;;;;15.90;99.90;;;;;;4934428;29;20086;-73
2023/06/24 01:42:46;;;;;;;10.95;9.38;;;15.90;99.90;;;;;;4952321;29;19957;-72
2023/06/24 01:45:21;;;;;;;11.38;9.40;;;15.90;99.90;;;;;;4930371;29;20066;-72
2023/06/24 01:47:52;;;;;;;11.48;9.75;;;15.80;99.90;;;;;;4935017;29;20094;-71
2023/06/24 01:50:22;;;;;;;11.55;9.85;;;15.80;99.90;;;;;;4934397;29;20040;-72
2023/06/24 01:52:52;;;;;;;12.98;10.23;;;15.80;99.90;;;;;;4951824;29;20055;-72
2023/06/24 01:55:20;;;;;;;11.52;10.20;;;15.80;99.90;;;;;;4934602;29;20060;-72
2023/06/24 01:57:48;;;;;;;11.35;10.15;;;15.60;99.90;;;;;;4951937;29;20047;-72
2023/06/24 02:00:15;;;;;;;15.15;10.60;;;15.60;99.90;;;;;;4935055;29;20106;-72
2023/06/24 02:02:41;;;;;;;13.43;10.38;;;15.60;99.90;;;;;;4934974;29;20055;-72
2023/06/24 02:05:09;;;;;;;12.63;10.90;;;15.60;99.90;;;;;;4919993;29;20594;-72
2023/06/24 02:07:36;;;;;;;12.40;10.95;;;15.60;99.90;;;;;;4935503;29;20050;-72
2023/06/24 02:10:03;;;;;;;13.35;9.95;;;15.60;99.90;;;;;;4933595;29;20040;-73
2023/06/24 02:12:30;;;;;;;13.85;10.57;;;15.60;99.90;;;;;;4948511;29;20119;-72
2023/06/24 02:14:57;;;;;;;12.90;10.50;;;15.60;99.90;;;;;;4928770;29;20048;-72
2023/06/24 02:17:26;;;;;;;13.82;10.73;;;15.50;99.90;;;;;;4916427;29;20047;-72
2023/06/24 02:19:53;;;;;;;13.25;10.15;;;15.50;99.90;;;;;;4933188;29;20039;-72
2023/06/24 02:22:21;;;;;;;11.85;10.25;;;15.50;99.90;;;;;;4921541;29;20115;-73
2023/06/24 02:24:49;;;;;;;12.45;10.77;;;15.50;99.90;;;;;;4921514;29;20079;-73
2023/06/24 02:27:16;;;;;;;11.57;10.38;;;15.50;99.90;;;;;;4931547;29;20500;-72
2023/06/24 02:29:42;;;;;;;14.40;11.45;;;15.50;99.90;;;;;;4936541;29;20051;-72
2023/06/24 02:32:09;;;;;;;15.52;12.32;;;15.50;99.90;;;;;;4950289;29;20056;-73
2023/06/24 02:34:34;;;;;;;14.90;10.55;;;15.50;99.90;;;;;;4920654;29;20047;-73
2023/06/24 02:37:00;;;;;;;15.20;11.50;;;15.50;99.90;;;;;;4933872;29;20044;-72
2023/06/24 02:39:26;;;;;;;12.85;10.45;;;15.50;99.90;;;;;;4948885;29;20046;-72
2023/06/24 02:41:51;;;;;;;15.07;11.25;;;15.50;99.90;;;;;;4935719;29;20111;-73
2023/06/24 02:44:17;;;;;;;12.30;11.10;;;15.50;99.90;;;;;;4935716;29;20043;-73
2023/06/24 02:46:45;;;;;;;13.93;11.00;;;15.40;99.90;;;;;;4903983;29;20059;-73
2023/06/24 02:49:15;;;;;;;14.20;11.25;;;15.40;99.90;;;;;;4932892;29;20055;-73
2023/06/24 02:51:42;;;;;;;12.70;10.32;;;15.40;99.90;;;;;;4932115;29;20414;-73
2023/06/24 02:54:09;;;;;;;13.13;11.00;;;15.40;99.90;;;;;;4933208;29;20568;-73
2023/06/24 02:56:41;;;;;;;12.63;10.45;;;15.40;99.90;;;;;;4933964;29;20067;-73
2023/06/24 02:59:07;;;;;;;13.93;11.10;;;15.40;99.90;;;;;;4936110;29;20039;-73
2023/06/24 03:01:38;;;;;;;14.35;11.20;;;15.40;99.90;;;;;;4931163;29;20063;-72
2023/06/24 03:04:04;;;;;;;11.98;10.30;;;15.40;99.90;;;;;;4935579;29;20059;-73
2023/06/24 03:06:31;;;;;;;14.38;10.13;;;15.40;99.90;;;;;;4948616;29;20043;-72
2023/06/24 03:08:57;;;;;;;13.02;11.23;;;15.40;99.90;;;;;;4934297;29;20050;-73
2023/06/24 03:11:25;;;;;;;13.75;11.13;;;15.40;99.90;;;;;;4934795;29;20129;-72
2023/06/24 03:13:51;;;;;;;14.35;10.75;;;15.30;99.90;;;;;;4932521;29;20046;-71
2023/06/24 03:16:17;;;;;;;13.15;10.68;;;15.40;99.90;;;;;;4920827;29;20043;-72
2023/06/24 03:18:42;;;;;;;14.23;11.07;;;15.30;99.90;;;;;;4950145;29;20075;-72
2023/06/24 03:21:09;;;;;;;13.00;10.70;;;15.30;99.90;;;;;;4934519;29;20107;-72
2023/06/24 03:23:36;;;;;;;12.20;10.05;;;15.30;99.90;;;;;;4917313;29;20045;-72
2023/06/24 03:26:02;;;;;;;12.55;10.55;;;15.20;99.90;;;;;;4935646;29;20519;-72
2023/06/24 03:28:30;;;;;;;12.60;10.18;;;15.30;99.90;;;;;;4929498;29;20043;-73
2023/06/24 03:30:59;;;;;;;12.05;10.18;;;15.30;99.90;;;;;;4932943;29;20054;-72
2023/06/24 03:33:26;;;;;;;14.93;10.52;;;15.30;99.90;;;;;;4917056;29;20056;-72
2023/06/24 03:35:52;;;;;;;15.25;10.50;;;15.30;99.90;;;;;;4933299;29;20110;-73
2023/06/24 03:38:18;;;;;;;13.32;10.75;;;15.30;99.90;;;;;;4934652;29;20074;-72
2023/06/24 03:40:44;;;;;;;13.40;11.05;;;15.30;99.90;;;;;;4932576;29;20106;-72
2023/06/24 03:43:10;;;;;;;11.63;10.27;;;15.40;99.90;;;;;;4949873;29;20050;-73
2023/06/24 03:45:36;;;;;;;13.65;10.57;;;15.40;99.90;;;;;;4948297;29;20046;-73
2023/06/24 03:48:01;;;;;;;12.85;10.35;;;15.50;99.90;;;;;;4899882;29;20207;-73
2023/06/24 03:50:27;;;;;;;13.55;10.55;;;15.70;99.90;;;;;;4919271;29;20051;-73
2023/06/24 03:52:53;;;;;;;12.70;10.82;;;15.80;99.90;;;;;;4915056;29;20158;-73
2023/06/24 03:55:18;;;;;;;12.68;10.82;;;15.80;99.90;;;;;;4902858;29;20140;-73
2023/06/24 03:57:44;;;;;;;12.90;10.68;;;15.80;99.90;;;;;;4931321;29;20107;-73
2023/06/24 04:00:16;;;;;;;13.93;10.70;;;15.80;99.90;;;;;;4949893;29;20055;-73
2023/06/24 04:02:43;;;;;;;13.55;10.55;;;15.80;99.90;;;;;;4929666;29;20063;-73
2023/06/24 04:05:10;;;;;;;14.95;10.77;;;15.90;99.90;;;;;;4948638;29;20060;-72
2023/06/24 04:07:35;;;;;;;12.85;9.98;;;15.90;99.90;;;;;;4950760;29;20055;-73
2023/06/24 04:10:03;;;;;;;15.70;11.00;;;15.90;99.90;;;;;;4948010;29;20111;-73
2023/06/24 04:12:29;;;;;;;13.80;11.85;;;15.90;99.90;;;;;;4932954;29;20043;-73
2023/06/24 04:14:55;;;;;;;13.57;11.07;;;16.00;99.90;;;;;;4926511;29;20047;-73
2023/06/24 04:17:21;;;;;;;11.55;10.23;;;16.00;99.90;;;;;;4903016;29;20046;-73
2023/06/24 04:19:46;;;;;;;13.57;10.90;;;16.00;99.90;;;;;;4932938;29;20800;-73
2023/06/24 04:22:12;;;;;;;13.95;10.65;;;16.10;99.90;;;;;;4918365;29;20054;-73
2023/06/24 04:24:38;;;;;;;13.95;11.13;;;16.10;99.90;;;;;;4949132;29;20086;-73
2023/06/24 04:27:05;;;;;;;16.27;10.77;;;16.10;99.90;;;;;;4933455;29;20485;-73
2023/06/24 04:29:31;;;;;;;13.52;10.52;;;16.20;99.90;;;;;;4933500;29;20099;-73
2023/06/24 04:31:57;;;;;;;12.85;10.60;;;16.20;99.90;;;;;;4916117;29;20051;-72
2023/06/24 04:34:22;;;;;;;13.80;11.43;;;16.30;99.90;;;;;;4916399;29;20047;-73
2023/06/24 04:36:48;;;;;;;13.10;11.20;;;16.40;99.90;;;;;;4899919;29;20112;-73
2023/06/24 04:39:14;;;;;;;12.00;10.77;;;16.40;99.90;;;;;;4933459;29;20082;-73
2023/06/24 04:41:40;;;;;;;13.60;11.27;;;16.40;99.90;;;;;;4916339;29;20043;-73
2023/06/24 04:44:05;;;;;;;12.23;10.52;;;16.50;99.90;;;;;;4933283;29;20035;-71
2023/06/24 04:46:32;;;;;;;12.45;10.90;;;16.60;99.90;;;;;;4930568;29;20112;-73
2023/06/24 04:48:58;;;;;;;13.50;10.98;;;16.90;99.90;;;;;;4913379;29;20160;-73
2023/06/24 04:51:24;;;;;;;13.85;11.55;;;17.10;99.90;;;;;;4933296;29;20074;-73
2023/06/24 04:53:49;;;;;;;14.43;11.65;;;17.30;99.90;;;;;;4947393;29;20039;-73
2023/06/24 04:56:15;;;;;;;14.50;11.32;;;17.30;99.90;;;;;;4930848;29;20477;-74
2023/06/24 04:58:41;;;;;;;14.82;10.77;;;17.10;99.90;;;;;;4908113;29;20126;-74
2023/06/24 05:01:07;;;;;;;12.82;10.30;;;17.10;99.90;;;;;;4904633;29;20048;-74
2023/06/24 05:03:32;;;;;;;14.35;11.55;;;17.10;99.90;;;;;;4903181;29;20145;-75
2023/06/24 05:05:58;;;;;;;17.05;12.38;;;17.10;99.90;;;;;;4919618;29;20047;-74
2023/06/24 05:08:24;;;;;;;15.18;11.43;;;17.00;99.90;;;;;;4900808;29;20404;-75
2023/06/24 05:10:50;;;;;;;15.65;11.88;;;17.10;99.90;;;;;;4945068;29;20071;-75
2023/06/24 05:13:16;;;;;;;15.60;12.15;;;17.10;99.90;;;;;;4923895;29;20047;-74
2023/06/24 05:15:41;;;;;;;19.55;13.13;;;17.10;99.90;;;;;;4920806;29;20104;-75
2023/06/24 05:18:07;;;;;;;15.85;12.48;;;17.10;99.90;;;;;;4917343;29;20052;-75
2023/06/24 05:20:33;;;;;;;16.88;13.10;;;17.20;99.90;;;;;;4904136;29;20058;-75
2023/06/24 05:22:58;;;;;;;17.48;12.40;;;17.20;99.90;;;;;;4912281;29;20110;-75
2023/06/24 05:25:24;;;;;;;15.90;13.30;;;17.20;99.90;;;;;;4902476;29;20400;-74
2023/06/24 05:27:50;;;;;;;18.40;13.38;;;17.30;99.90;;;;;;4891760;29;20143;-73
2023/06/24 05:30:15;;;;;;;21.08;14.25;;;17.40;99.90;;;;;;4916852;29;20075;-73
2023/06/24 05:32:41;;;;;;;17.92;13.45;;;17.40;99.90;;;;;;4908569;29;20096;-73
2023/06/24 05:35:07;;;;;;;16.67;14.40;;;17.50;99.90;;;;;;4905853;29;20062;-75
2023/06/24 05:37:33;;;;;;;19.90;14.10;;;17.50;99.90;;;;;;4939236;29;20501;-75
2023/06/24 05:40:01;;;;;;;16.25;13.13;;;17.60;99.90;;;;;;4892990;29;20047;-76
2023/06/24 05:42:27;;;;;;;16.55;13.63;;;17.60;99.90;;;;;;4919144;29;20048;-75
2023/06/24 05:44:53;;;;;;;16.20;13.77;;;17.70;99.90;;;;;;4914444;29;20055;-73
2023/06/24 05:47:19;;;;;;;14.45;12.77;;;17.90;99.90;;;;;;4914498;29;20060;-73
2023/06/24 05:49:45;;;;;;;16.27;13.32;;;18.00;99.90;;;;;;4922603;29;20047;-74
2023/06/24 05:52:12;;;;;;;17.90;14.15;;;18.10;99.90;;;;;;4908291;29;20500;-74
2023/06/24 05:54:37;;;;;;;17.73;13.18;;;18.20;99.90;;;;;;4904129;29;20052;-75
2023/06/24 05:57:06;;;;;;;17.17;13.68;;;18.30;99.90;;;;;;4900106;29;20065;-74
2023/06/24 05:59:33;;;;;;;18.55;13.82;;;18.40;99.90;;;;;;4916667;29;20055;-74
2023/06/24 06:01:59;;;;;;;16.33;12.90;;;18.60;99.90;;;;;;4920188;29;20055;-74
2023/06/24 06:04:24;;;;;;;20.55;14.05;;;18.70;99.90;;;;;;4935871;29;20055;-74
2023/06/24 06:06:50;;;;;;;14.32;12.82;;;18.70;99.90;;;;;;4926435;29;20150;-74
2023/06/24 06:09:16;;;;;;;16.77;13.00;;;18.90;99.90;;;;;;4941303;29;20123;-75
2023/06/24 06:11:41;;;;;;;17.30;12.57;;;19.00;99.90;;;;;;4924921;29;20560;-74
2023/06/24 06:14:07;;;;;;;18.90;13.07;;;19.20;99.90;;;;;;4926072;29;20111;-74
2023/06/24 06:16:33;;;;;;;17.73;14.18;;;19.30;99.90;;;;;;4914597;29;20051;-74
2023/06/24 06:18:59;;;;;;;17.10;13.23;;;19.40;99.90;;;;;;4916328;29;20135;-74
2023/06/24 06:21:25;;;;;;;16.27;13.05;;;19.50;99.90;;;;;;4906307;29;20048;-74
2023/06/24 06:23:50;;;;;;;14.70;13.05;;;19.60;99.90;;;;;;4935480;29;20040;-74
2023/06/24 06:26:16;;;;;;;14.55;12.55;;;19.70;99.90;;;;;;4927200;29;20375;-73
2023/06/24 06:28:42;;;;;;;14.60;12.35;;;19.80;99.90;;;;;;4910912;29;20172;-74
2023/06/24 06:31:08;;;;;;;13.50;11.70;;;20.00;99.90;;;;;;4926030;29;20051;-81
2023/06/24 06:33:34;;;;;;;13.63;11.38;;;20.20;99.90;;;;;;4911521;29;20050;-73
2023/06/24 06:35:59;;;;;;;15.15;10.98;;;20.40;99.90;;;;;;4942801;29;20052;-72
2023/06/24 06:38:25;;;;;;;13.52;10.93;;;20.50;99.90;;;;;;4927164;29;20096;-73
2023/06/24 06:40:51;;;;;;;14.52;11.32;;;20.60;99.90;;;;;;4940809;29;20051;-73
2023/06/24 06:43:16;;;;;;;12.43;11.13;;;20.80;99.90;;;;;;4916232;29;20043;-73
2023/06/24 06:45:42;;;;;;;18.17;11.05;;;20.90;99.90;;;;;;4920145;29;20078;-73
2023/06/24 06:48:08;;;;;;;11.75;9.77;;;21.00;99.90;;;;;;4966583;28;20047;-73
2023/06/24 06:50:34;;;;;;;11.95;10.32;;;21.10;99.90;;;;;;4920588;29;20054;-73
2023/06/24 06:53:00;;;;;;;10.90;9.82;;;21.30;99.90;;;;;;4893557;29;20048;-73
2023/06/24 06:55:27;;;;;;;12.50;10.25;;;21.40;99.90;;;;;;4945713;29;20158;-71
2023/06/24 06:57:53;;;;;;;12.63;10.30;;;21.40;99.90;;;;;;4928272;29;20399;-73
2023/06/24 07:00:19;;;;;;;16.83;9.90;;;21.50;99.90;;;;;;4929305;29;20284;-73
2023/06/24 07:02:44;;;;;;;12.05;10.15;;;21.60;99.90;;;;;;4912600;29;20047;-72
2023/06/24 07:05:11;;;;;;;11.95;9.60;;;21.70;99.90;;;;;;4950681;28;20043;-72
2023/06/24 07:07:40;;;;;;;12.30;10.02;;;21.90;99.90;;;;;;4907764;28;20129;-74
2023/06/24 07:10:06;;;;;;;13.00;9.20;;;22.00;99.90;;;;;;4959679;29;20035;-73
2023/06/24 07:12:32;;;;;;;11.63;10.43;;;22.10;99.90;;;;;;4953649;28;20046;-74
2023/06/24 07:14:57;;;;;;;11.63;10.05;;;22.20;99.90;;;;;;4939195;28;20039;-75
2023/06/24 07:17:23;;;;;;;13.10;10.68;;;22.30;99.90;;;;;;4925747;28;20043;-75
2023/06/24 07:19:49;;;;;;;12.02;10.35;;;22.40;99.90;;;;;;4925761;29;20062;-75
2023/06/24 07:22:15;;;;;;;10.77;9.45;;;22.40;99.90;;;;;;4945880;29;20051;-73
2023/06/24 07:24:42;;;;;;;13.57;9.70;;;22.50;99.90;;;;;;4946386;29;20047;-73
2023/06/24 07:27:07;;;;;;;12.52;10.23;;;22.70;99.90;;;;;;4926885;29;20047;-74
2023/06/24 07:29:33;;;;;;;10.98;9.85;;;22.80;99.90;;;;;;4933185;29;20043;-75
2023/06/24 07:31:59;;;;;;;13.35;10.48;;;22.90;99.90;;;;;;4942952;29;20067;-75
2023/06/24 07:34:25;;;;;;;12.10;10.63;;;22.90;99.90;;;;;;4934318;28;20094;-75
2023/06/24 07:36:51;;;;;;;12.68;9.85;;;23.00;99.90;;;;;;4914189;29;20062;-75
2023/06/24 07:39:17;;;;;;;12.02;9.80;;;23.20;99.90;;;;;;4937513;29;20115;-75
2023/06/24 07:41:43;;;;;;;13.15;10.13;;;23.20;99.90;;;;;;4942970;29;20128;-76
2023/06/24 07:44:09;;;;;;;11.95;9.95;;;23.40;99.90;;;;;;4943740;28;20059;-75
2023/06/24 07:46:35;;;;;;;12.23;10.38;;;23.50;99.90;;;;;;4929459;29;20366;-75
2023/06/24 07:49:01;;;;;;;11.25;9.15;;;23.70;99.90;;;;;;4943221;29;20055;-75
2023/06/24 07:51:27;;;;;;;11.65;9.32;;;23.80;99.90;;;;;;4945310;29;20054;-75
2023/06/24 07:53:53;;;;;;;12.13;9.55;;;24.00;99.90;;;;;;4922032;28;20039;-75
2023/06/24 07:56:19;;;;;;;14.73;9.98;;;24.00;99.90;;;;;;4956320;28;20056;-75
2023/06/24 07:58:44;;;;;;;10.73;9.45;;;24.00;99.90;;;;;;4934607;28;20066;-75
2023/06/24 08:01:10;;;;;;;10.27;9.27;;;23.90;99.90;;;;;;4916644;29;20446;-75
2023/06/24 08:03:37;;;;;;;12.75;9.05;;;23.80;99.90;;;;;;4935036;28;20087;-75
2023/06/24 08:06:03;;;;;;;12.77;9.25;;;23.80;99.90;;;;;;4910763;29;20054;-74
2023/06/24 08:08:28;;;;;;;10.23;8.82;;;23.70;99.90;;;;;;4939349;29;20047;-75
2023/06/24 08:10:54;;;;;;;9.65;8.48;;;23.70;99.90;;;;;;4942958;29;20094;-75
2023/06/24 08:13:20;;;;;;;10.35;8.57;;;23.70;99.90;;;;;;4944584;29;21084;-74
2023/06/24 08:15:46;;;;;;;10.50;9.40;;;23.70;99.90;;;;;;4947215;28;20084;-73
2023/06/24 08:18:12;;;;;;;11.85;8.50;;;23.70;99.90;;;;;;4968518;28;20046;-74
2023/06/24 08:20:37;;;;;;;14.00;9.05;;;23.90;99.90;;;;;;4928289;29;20035;-74
2023/06/24 08:23:03;;;;;;;10.43;8.57;;;24.10;99.90;;;;;;4951115;28;20042;-73
2023/06/24 08:25:30;;;;;;;11.20;8.88;;;24.30;99.90;;;;;;4915960;29;20082;-74
2023/06/24 08:27:56;;;;;;;12.75;10.30;;;24.50;99.90;;;;;;4943097;29;20509;-72
2023/06/24 08:30:21;;;;;;;11.68;9.32;;;24.70;99.90;;;;;;4958643;29;20063;-72
2023/06/24 08:32:47;;;;;;;12.35;9.45;;;24.80;99.90;;;;;;4949689;28;20081;-72
2023/06/24 08:35:13;;;;;;;10.10;8.05;;;24.90;99.90;;;;;;4934052;29;20051;-72
2023/06/24 08:37:39;;;;;;;8.82;7.28;;;24.80;99.90;;;;;;4945040;29;20134;-72
2023/06/24 08:40:06;;;;;;;10.30;8.07;;;24.80;99.90;;;;;;4967012;28;20083;-72
2023/06/24 08:42:32;;;;;;;8.68;7.53;;;24.70;99.90;;;;;;4929776;29;20051;-74
2023/06/24 08:44:58;;;;;;;10.25;8.07;;;24.60;99.90;;;;;;4934982;28;20166;-70
2023/06/24 08:47:30;;;;;;;10.48;8.48;;;24.60;99.90;;;;;;4953219;29;20054;-71
2023/06/24 08:50:26;;;;;;;11.93;7.07;;;24.70;99.90;;;;;;4913012;29;20086;-72
2023/06/24 08:52:53;;;;;;;8.82;7.53;;;24.70;99.90;;;;;;4920901;29;20201;-78
2023/06/24 08:55:22;;;;;;;8.88;7.18;;;24.70;99.90;;;;;;4893488;29;20082;-72
2023/06/24 08:57:48;;;;;;;9.60;7.55;;;24.70;99.90;;;;;;4941581;29;20044;-71
2023/06/24 09:00:14;;;;;;;7.78;6.35;;;24.70;99.90;;;;;;4942097;29;20047;-72
2023/06/24 09:02:40;;;;;;;8.73;6.95;;;24.70;99.90;;;;;;4921711;29;20102;-71
2023/06/24 09:05:07;;;;;;;7.25;6.45;;;24.70;99.90;;;;;;4927642;29;20048;-72
2023/06/24 09:07:33;;;;;;;9.20;6.30;;;24.70;99.90;;;;;;4949538;29;20097;-72
2023/06/24 09:10:03;;;;;;;6.60;5.78;;;24.80;99.90;;;;;;4901263;29;20075;-72
2023/06/24 09:12:32;;;;;;;6.82;5.90;;;24.80;99.90;;;;;;4949172;29;20094;-72
2023/06/24 09:14:58;;;;;;;6.95;5.65;;;24.80;99.90;;;;;;4948972;28;20059;-72
2023/06/24 09:17:24;;;;;;;7.90;6.07;;;24.90;99.90;;;;;;4908737;29;20035;-72
2023/06/24 09:19:50;;;;;;;7.43;6.55;;;25.00;99.90;;;;;;4935687;29;20063;-72
2023/06/24 09:22:17;;;;;;;8.13;6.75;;;25.10;99.90;;;;;;4915341;29;20127;-71
2023/06/24 09:24:46;;;;;;;8.32;6.45;;;25.20;99.90;;;;;;4924935;29;20047;-71
2023/06/24 09:27:14;;;;;;;9.23;6.30;;;25.30;99.90;;;;;;4938620;29;20116;-72
2023/06/24 09:29:41;;;;;;;7.10;6.22;;;25.40;99.90;;;;;;4940172;29;20048;-72
2023/06/24 09:32:07;;;;;;;8.00;7.20;;;25.50;99.90;;;;;;4939350;29;20047;-72
2023/06/24 09:34:34;;;;;;;7.95;7.13;;;25.70;99.90;;;;;;4940956;29;20050;-71
2023/06/24 09:36:59;;;;;;;7.20;6.00;;;25.90;99.90;;;;;;4933805;29;20459;-72
2023/06/24 09:39:30;;;;;;;11.15;6.65;;;26.10;99.90;;;;;;4937849;29;20043;-72
2023/06/24 09:41:57;;;;;;;7.53;5.73;;;26.20;99.90;;;;;;4931812;29;20143;-71
2023/06/24 09:44:23;;;;;;;6.65;6.00;;;26.30;99.40;;;;;;4947629;29;20907;-71
2023/06/24 09:46:49;;;;;;;6.88;5.63;;;26.40;97.50;;;;;;4934894;29;20060;-72
2023/06/24 09:49:15;;;;;;;7.93;4.85;;;26.60;98.80;;;;;;4934944;29;20612;-72
2023/06/24 09:51:44;;;;;;;7.10;5.13;;;26.80;94.70;;;;;;4931296;29;20111;-72
2023/06/24 09:54:12;;;;;;;7.07;5.88;;;26.80;95.10;;;;;;4951340;29;20035;-72
2023/06/24 09:56:53;;;;;;;8.27;5.50;;;26.90;91.40;;;;;;4936099;29;20047;-72
2023/06/24 09:59:21;;;;;;;5.85;5.28;;;26.90;84.90;;;;;;4949897;29;20930;-71
2023/06/24 10:01:48;;;;;;;6.28;5.68;;;27.10;89.60;;;;;;4929519;29;20052;-72
2023/06/24 10:04:17;;;;;;;7.25;6.07;;;27.20;87.90;;;;;;4947509;29;20055;-72
2023/06/24 10:06:43;;;;;;;6.10;5.50;;;27.20;85.80;;;;;;4948709;29;20047;-72
2023/06/24 10:09:09;;;;;;;6.53;5.82;;;27.40;89.00;;;;;;4928048;29;20624;-72
2023/06/24 10:11:35;;;;;;;5.70;5.10;;;27.50;82.70;;;;;;4944393;29;20044;-72
2023/06/24 10:14:01;;;;;;;10.60;4.45;;;27.60;81.30;;;;;;4940963;29;20048;-71
2023/06/24 10:16:27;;;;;;;5.65;4.72;;;27.70;79.30;;;;;;4950468;28;20058;-72
2023/06/24 10:19:00;;;;;;;7.53;5.18;;;27.70;75.00;;;;;;4928551;29;20047;-72
2023/06/24 10:21:53;;;;;;;6.22;4.68;;;27.60;70.60;;;;;;4946854;29;20099;-73
2023/06/24 10:24:28;;;;;;;5.55;4.90;;;27.60;69.40;;;;;;4920363;29;20063;-73
2023/06/24 10:26:54;;;;;;;6.82;4.80;;;27.60;70.40;;;;;;4948072;29;20058;-73
2023/06/24 10:29:31;;;;;;;5.90;4.38;;;27.70;71.30;;;;;;4930322;29;20043;-72
2023/06/24 10:32:02;;;;;;;5.00;4.13;;;27.80;69.60;;;;;;4946437;29;20537;-73
2023/06/24 10:34:33;;;;;;;6.20;5.07;;;28.00;70.30;;;;;;4938803;29;20047;-72
2023/06/24 10:37:12;;;;;;;6.70;4.50;;;28.10;69.00;;;;;;4941207;29;20053;-72
2023/06/24 10:39:57;;;;;;;5.85;4.55;;;28.10;68.50;;;;;;4949012;29;20048;-73
2023/06/24 10:42:28;;;;;;;5.32;4.25;;;28.20;68.10;;;;;;4944029;29;20136;-72
2023/06/24 10:44:59;;;;;;;5.95;4.75;;;28.40;68.10;;;;;;4941818;29;20051;-73
2023/06/24 10:47:27;;;;;;;4.93;4.43;;;28.60;68.00;;;;;;4933011;29;20114;-72
2023/06/24 10:49:53;;;;;;;4.07;3.67;;;28.60;67.90;;;;;;4942589;29;20059;-73
2023/06/24 10:52:21;;;;;;;4.75;4.32;;;28.40;66.40;;;;;;4929844;29;20051;-73
2023/06/24 10:54:48;;;;;;;5.47;4.20;;;28.30;65.40;;;;;;4942723;29;20050;-72
2023/06/24 10:57:14;;;;;;;5.43;4.13;;;28.20;63.80;;;;;;4948788;29;20047;-72
2023/06/24 10:59:47;;;;;;;4.47;4.07;;;28.00;64.70;;;;;;4947483;29;20091;-73
2023/06/24 11:02:17;;;;;;;4.72;4.13;;;27.50;64.20;;;;;;4927880;29;20055;-73
2023/06/24 11:04:44;;;;;;;4.20;3.80;;;27.20;64.90;;;;;;4944686;29;20393;-73
2023/06/24 11:07:10;;;;;;;4.85;4.28;;;26.90;65.60;;;;;;4947255;29;20062;-73
2023/06/24 11:09:35;;;;;;;4.95;4.45;;;26.80;68.50;;;;;;4942672;29;20035;-72
2023/06/24 11:12:03;;;;;;;4.28;3.88;;;26.80;69.10;;;;;;4932811;29;20066;-72
2023/06/24 11:14:29;;;;;;;5.38;3.90;;;26.90;67.70;;;;;;4944320;29;20054;-74
2023/06/24 11:16:55;;;;;;;4.55;4.13;;;27.20;66.80;;;;;;4933126;29;20111;-73
2023/06/24 11:19:20;;;;;;;4.90;3.75;;;27.50;65.80;;;;;;4948729;29;20408;-72
2023/06/24 11:21:46;;;;;;;4.72;4.15;;;27.50;64.70;;;;;;4944902;29;20087;-73
2023/06/24 11:24:12;;;;;;;4.30;3.90;;;27.50;64.50;;;;;;4924777;29;20306;-74
2023/06/24 11:26:38;;;;;;;4.40;3.85;;;27.60;64.30;;;;;;4897023;29;20040;-74
2023/06/24 11:29:13;;;;;;;4.03;3.25;;;27.90;64.90;;;;;;4926116;29;20048;-74
2023/06/24 11:31:39;;;;;;;4.18;3.80;;;28.10;63.70;;;;;;4940025;29;20059;-74
2023/06/24 11:34:05;;;;;;;9.02;3.88;;;28.10;64.60;;;;;;4933280;29;20032;-79
2023/06/24 11:36:31;;;;;;;4.40;4.00;;;27.90;64.60;;;;;;4908089;29;20047;-73
2023/06/24 11:38:57;;;;;;;4.75;4.22;;;27.80;64.30;;;;;;4925782;29;20051;-73
2023/06/24 11:41:25;;;;;;;4.72;4.20;;;27.60;64.90;;;;;;4908193;29;20051;-74
2023/06/24 11:43:51;;;;;;;4.03;3.63;;;27.80;65.70;;;;;;4924417;29;20048;-74
2023/06/24 11:46:27;;;;;;;4.22;3.67;;;27.90;65.20;;;;;;4924215;28;20055;-75
2023/06/24 11:49:06;;;;;;;4.53;3.90;;;27.50;63.40;;;;;;4941580;29;20062;-75
2023/06/24 11:51:32;;;;;;;4.95;4.53;;;27.30;65.00;;;;;;4927804;28;20086;-74
2023/06/24 11:54:03;;;;;;;4.50;4.10;;;27.20;65.90;;;;;;4943360;28;20046;-74
2023/06/24 11:56:36;;;;;;;6.90;4.28;;;27.50;69.30;;;;;;4933260;29;20047;-74
2023/06/24 11:59:07;;;;;;;4.90;3.97;;;27.90;67.50;;;;;;4940975;28;20062;-74
2023/06/24 12:01:36;;;;;;;5.20;4.38;;;28.10;67.30;;;;;;4944242;28;20069;-74
2023/06/24 12:04:13;;;;;;;5.20;4.03;;;28.30;65.30;;;;;;4950693;29;20047;-74
2023/06/24 12:06:43;;;;;;;4.38;3.97;;;28.40;64.50;;;;;;4926781;29;20075;-74
2023/06/24 12:09:09;;;;;;;4.78;4.00;;;28.70;64.70;;;;;;4913873;29;20053;-74
2023/06/24 12:11:35;;;;;;;5.57;4.53;;;28.80;63.60;;;;;;4914325;28;20046;-74
2023/06/24 12:14:01;;;;;;;7.90;4.25;;;29.00;63.40;;;;;;4935132;29;20044;-74
2023/06/24 12:16:27;;;;;;;5.40;4.20;;;29.10;62.70;;;;;;4912735;29;20054;-74
2023/06/24 12:18:53;;;;;;;4.45;4.05;;;29.20;61.80;;;;;;4961007;28;20039;-74
2023/06/24 12:21:19;;;;;;;6.25;4.72;;;29.30;62.80;;;;;;4941788;28;20046;-74
2023/06/24 12:23:45;;;;;;;4.57;4.18;;;29.30;61.80;;;;;;4932981;29;20043;-74
2023/06/24 12:26:11;;;;;;;4.38;3.97;;;29.20;61.70;;;;;;4929105;28;20488;-74
2023/06/24 12:28:37;;;;;;;6.13;4.18;;;29.30;61.30;;;;;;4928961;28;20043;-74
2023/06/24 12:31:03;;;;;;;4.18;3.78;;;29.40;61.60;;;;;;4954567;29;20105;-74
2023/06/24 12:33:29;;;;;;;4.85;4.35;;;29.40;61.00;;;;;;4896592;29;20090;-74
2023/06/24 12:35:55;;;;;;;4.93;4.43;;;29.40;61.50;;;;;;4909615;29;20055;-75
2023/06/24 12:38:21;;;;;;;5.13;3.92;;;29.20;59.70;;;;;;4945916;29;20107;-74